X  Chiuso Dati meteorologici dell'aviazione (METAR)     LGRX Patras Araxos Agamemnon Airport
Temperatura
13°C Temperatura
11°C Punto di rugiada
88% Umidità



Vento
10 KM/O
6 MPH
3 M/S
5 KTS



170°
S
Condizioni attuali

Parzialmente nuvoloso Parzialmente nuvoloso
Pressione 1017.95 (hPa) - 30.06 (inHg)
Visibilità 6 (miglio) - 9.7 (km)
Aeroporto
Codice-Aeroporto LGRX

Posizione: Patras Araxos Agamemnon Airport
Distanza: 108 (km)

Metar:
LGRX 230520Z 17005KT 9999 FEW015 BKN030 13/11 Q1018

Ore: 23-02-2024 07:20 EET